createdAt,value
2022-08-20T00:02:13.484Z,61.19
2022-08-20T00:04:41.665Z,61.10
2022-08-20T00:07:09.783Z,60.12
2022-08-20T00:09:40.632Z,61.60
2022-08-20T00:12:10.626Z,61.27
2022-08-20T00:14:39.626Z,60.71
2022-08-20T00:17:07.936Z,59.98
2022-08-20T00:19:36.264Z,59.52
2022-08-20T00:22:04.848Z,58.40
2022-08-20T00:24:33.953Z,58.93
2022-08-20T00:27:02.203Z,61.31
2022-08-20T00:29:31.304Z,65.17
2022-08-20T00:31:59.804Z,64.98
2022-08-20T00:34:28.556Z,62.94
2022-08-20T00:36:56.882Z,61.41
2022-08-20T00:39:25.046Z,60.09
2022-08-20T00:41:53.198Z,58.13
2022-08-20T00:44:22.929Z,58.74
2022-08-20T00:46:52.625Z,60.88
2022-08-20T00:49:24.142Z,65.43
2022-08-20T00:51:57.129Z,64.97
2022-08-20T00:54:29.409Z,62.72
2022-08-20T00:57:02.834Z,61.35
2022-08-20T00:59:33.450Z,60.54
2022-08-20T01:02:03.822Z,59.94
2022-08-20T01:04:34.305Z,58.18
2022-08-20T01:07:05.473Z,59.22
2022-08-20T01:09:58.631Z,63.70
2022-08-20T01:12:24.523Z,63.95
2022-08-20T01:14:54.657Z,61.95
2022-08-20T01:17:27.369Z,61.04
2022-08-20T01:20:02.930Z,60.11
2022-08-20T01:22:56.539Z,58.30
2022-08-20T01:25:30.324Z,58.93
2022-08-20T01:27:59.305Z,63.82
2022-08-20T01:30:31.395Z,63.99
2022-08-20T01:32:59.707Z,61.55
2022-08-20T01:35:29.012Z,60.10
2022-08-20T01:37:57.322Z,61.44
2022-08-20T01:40:49.187Z,61.30
2022-08-20T01:43:17.547Z,60.93
2022-08-20T01:45:46.396Z,60.26
2022-08-20T01:48:18.897Z,59.66
2022-08-20T01:50:58.198Z,57.89
2022-08-20T01:53:32.842Z,59.24
2022-08-20T01:56:01.234Z,63.82
2022-08-20T01:58:29.858Z,63.95
2022-08-20T02:00:58.453Z,61.94
2022-08-20T02:03:32.516Z,61.20
2022-08-20T02:06:03.511Z,60.65
2022-08-20T02:08:32.881Z,59.92
2022-08-20T02:11:00.996Z,57.82
2022-08-20T02:13:29.071Z,58.48
2022-08-20T02:15:57.240Z,60.56
2022-08-20T02:18:25.636Z,65.25
2022-08-20T02:20:53.819Z,65.35
2022-08-20T02:23:22.280Z,63.26
2022-08-20T02:25:50.759Z,61.92
2022-08-20T02:28:20.570Z,60.58
2022-08-20T02:30:51.660Z,60.82
2022-08-20T02:33:19.889Z,60.78
2022-08-20T02:35:55.755Z,60.20
2022-08-20T02:38:24.332Z,58.02
2022-08-20T02:40:52.549Z,58.59
2022-08-20T02:43:20.916Z,60.75
2022-08-20T02:45:49.144Z,64.37
2022-08-20T02:48:20.895Z,65.29
2022-08-20T02:50:52.334Z,63.58
2022-08-20T02:53:21.737Z,62.06
2022-08-20T02:55:50.092Z,60.91
2022-08-20T02:58:18.718Z,60.07
2022-08-20T03:00:47.021Z,58.19
2022-08-20T03:03:19.608Z,58.60
2022-08-20T03:05:49.193Z,60.87
2022-08-20T03:08:17.901Z,64.46
2022-08-20T03:10:47.165Z,64.99
2022-08-20T03:13:16.531Z,63.23
2022-08-20T03:15:47.446Z,61.86
2022-08-20T03:18:16.304Z,60.66
2022-08-20T03:20:45.985Z,59.74
2022-08-20T03:23:15.743Z,58.10
2022-08-20T03:25:43.996Z,58.97
2022-08-20T03:28:13.321Z,63.08
2022-08-20T03:30:42.375Z,63.65
2022-08-20T03:33:10.779Z,61.32
2022-08-20T03:35:39.426Z,60.07
2022-08-20T03:38:09.372Z,57.59
2022-08-20T03:40:38.398Z,58.46
2022-08-20T03:43:08.325Z,60.81
2022-08-20T03:45:38.730Z,65.57
2022-08-20T03:48:09.641Z,65.23
2022-08-20T03:50:41.869Z,62.84
2022-08-20T03:53:13.175Z,61.05
2022-08-20T03:55:45.717Z,60.20
2022-08-20T03:58:30.075Z,57.71
2022-08-20T04:01:05.239Z,57.79
2022-08-20T04:03:33.532Z,63.63
2022-08-20T04:06:01.693Z,64.40
2022-08-20T04:08:30.659Z,62.52
2022-08-20T04:10:59.904Z,60.91
2022-08-20T04:13:29.911Z,58.52
2022-08-20T04:16:00.561Z,58.90
2022-08-20T04:18:29.006Z,59.84
2022-08-20T04:20:57.092Z,63.98
2022-08-20T04:23:25.314Z,65.44
2022-08-20T04:25:53.953Z,63.75
2022-08-20T04:28:26.555Z,62.56
2022-08-20T04:30:55.960Z,61.67
2022-08-20T04:33:34.059Z,60.46
2022-08-20T04:36:05.337Z,59.89
2022-08-20T04:38:50.610Z,57.67
2022-08-20T04:41:22.572Z,58.44
2022-08-20T04:43:53.266Z,60.54
2022-08-20T04:46:24.904Z,65.12
2022-08-20T04:48:54.759Z,64.94
2022-08-20T04:51:24.611Z,62.82
2022-08-20T04:53:54.466Z,60.91
2022-08-20T04:56:25.284Z,58.05
2022-08-20T04:58:56.276Z,58.10
2022-08-20T05:01:25.422Z,59.49
2022-08-20T05:03:55.336Z,59.41
2022-08-20T05:06:27.838Z,59.45
2022-08-20T05:08:58.084Z,60.98
2022-08-20T05:11:34.425Z,62.79
2022-08-20T05:14:07.918Z,62.05
2022-08-20T05:16:37.481Z,60.38
2022-08-20T05:19:06.305Z,56.81
2022-08-20T05:21:34.413Z,56.91
2022-08-20T05:24:02.781Z,58.24
2022-08-20T05:26:32.488Z,59.42
2022-08-20T05:29:02.004Z,60.34
2022-08-20T05:31:33.357Z,60.71
2022-08-20T05:34:03.321Z,59.88
2022-08-20T05:36:31.502Z,58.23
2022-08-20T05:38:59.788Z,57.14
2022-08-20T05:41:30.046Z,55.73
2022-08-20T05:44:00.504Z,54.72
2022-08-20T05:46:30.634Z,53.93
2022-08-20T05:49:00.613Z,53.43
2022-08-20T05:51:29.573Z,53.43
2022-08-20T05:53:59.504Z,53.01
2022-08-20T05:56:29.850Z,53.74
2022-08-20T05:59:00.074Z,54.33
2022-08-20T06:01:28.636Z,55.26
2022-08-20T06:04:17.676Z,57.35
2022-08-20T06:06:47.313Z,60.29
2022-08-20T06:09:27.929Z,59.43
2022-08-20T06:12:02.572Z,60.98
2022-08-20T06:14:31.305Z,61.88
2022-08-20T06:17:08.286Z,64.69
2022-08-20T06:19:39.540Z,63.56
2022-08-20T06:22:19.423Z,57.67
2022-08-20T06:24:50.793Z,57.81
2022-08-20T06:27:19.664Z,58.80
2022-08-20T06:29:48.738Z,60.34
2022-08-20T06:32:17.466Z,61.19
2022-08-20T06:34:49.797Z,64.70
2022-08-20T06:37:21.335Z,64.18
2022-08-20T06:39:50.169Z,61.57
2022-08-20T06:42:21.017Z,59.06
2022-08-20T06:44:50.322Z,58.76
2022-08-20T06:47:20.201Z,60.66
2022-08-20T06:49:48.973Z,64.50
2022-08-20T06:52:17.492Z,64.88
2022-08-20T06:54:45.814Z,62.96
2022-08-20T06:57:16.849Z,61.54
2022-08-20T06:59:44.917Z,58.93
2022-08-20T07:02:17.173Z,59.25
2022-08-20T07:04:45.335Z,61.17
2022-08-20T07:07:18.521Z,63.06
2022-08-20T07:09:46.598Z,62.87
2022-08-20T07:12:14.797Z,63.24
2022-08-20T07:14:44.985Z,60.70
2022-08-20T07:17:13.155Z,60.43
2022-08-20T07:19:41.363Z,61.56
2022-08-20T07:22:09.633Z,61.85
2022-08-20T07:24:40.901Z,61.31
2022-08-20T07:27:09.368Z,60.78
2022-08-20T07:29:56.314Z,58.59
2022-08-20T07:32:36.816Z,57.81
2022-08-20T07:35:09.448Z,60.39
2022-08-20T07:37:42.764Z,66.51
2022-08-20T07:40:21.312Z,66.12
2022-08-20T07:42:53.252Z,63.61
2022-08-20T07:45:22.339Z,61.48
2022-08-20T07:47:52.937Z,60.12
2022-08-20T07:50:23.395Z,56.80
2022-08-20T07:52:52.903Z,56.17
2022-08-20T07:55:21.843Z,57.75
2022-08-20T07:57:50.632Z,59.40
2022-08-20T08:00:21.281Z,60.11
2022-08-20T08:02:49.584Z,63.36
2022-08-20T08:05:18.605Z,61.33
2022-08-20T08:07:47.085Z,58.79
2022-08-20T08:10:21.447Z,58.50
2022-08-20T08:12:51.704Z,58.56
2022-08-20T08:15:26.773Z,60.33
2022-08-20T08:17:58.747Z,60.18
2022-08-20T08:20:27.356Z,64.68
2022-08-20T08:22:56.988Z,64.02
2022-08-20T08:25:25.413Z,61.32
2022-08-20T08:27:53.533Z,58.15
2022-08-20T08:30:22.235Z,56.36
2022-08-20T08:33:11.241Z,56.52
2022-08-20T08:52:00.227Z,58.39
2022-08-20T08:54:34.345Z,57.13
2022-08-20T08:57:13.689Z,56.96
2022-08-20T09:00:03.218Z,57.29
2022-08-20T09:02:38.760Z,57.80
2022-08-20T09:05:17.755Z,59.25
2022-08-20T09:07:53.331Z,60.08
2022-08-20T09:10:26.290Z,64.16
2022-08-20T09:12:58.275Z,62.72
2022-08-20T09:15:29.936Z,57.96
2022-08-20T09:18:01.572Z,56.32
2022-08-20T09:20:33.908Z,56.82
2022-08-20T09:23:07.915Z,59.12
2022-08-20T09:25:39.890Z,60.22
2022-08-20T09:28:11.803Z,64.50
2022-08-20T09:30:52.331Z,64.54
2022-08-20T09:33:23.872Z,61.41
2022-08-20T09:35:55.604Z,56.47
2022-08-20T09:38:27.353Z,55.26
2022-08-20T09:40:59.551Z,56.71
2022-08-20T09:43:31.183Z,58.23
2022-08-20T09:46:02.817Z,60.22
2022-08-20T09:48:34.340Z,64.51
2022-08-20T09:51:06.291Z,63.42
2022-08-20T09:53:38.189Z,59.17
2022-08-20T09:56:11.275Z,57.09
2022-08-20T09:58:50.340Z,57.88
2022-08-20T10:01:23.596Z,58.18
2022-08-20T10:03:55.234Z,59.62
2022-08-20T10:06:26.705Z,60.10
2022-08-20T10:08:58.440Z,60.48
2022-08-20T10:11:32.137Z,63.67
2022-08-20T10:14:03.728Z,64.41
2022-08-20T10:16:36.179Z,61.26
2022-08-20T10:19:10.019Z,57.97
2022-08-20T10:21:43.194Z,58.42
2022-08-20T10:24:14.923Z,60.52
2022-08-20T10:26:46.977Z,65.02
2022-08-20T10:29:18.756Z,64.27
2022-08-20T10:31:50.255Z,61.80
2022-08-20T10:34:22.130Z,58.82
2022-08-20T10:36:54.112Z,58.66
2022-08-20T10:39:25.789Z,59.37
2022-08-20T10:41:57.321Z,60.74
2022-08-20T10:44:29.007Z,64.15
2022-08-20T10:47:13.602Z,63.72
2022-08-20T10:49:45.869Z,62.46
2022-08-20T10:52:17.910Z,61.69
2022-08-20T10:54:50.082Z,60.75
2022-08-20T10:57:27.837Z,58.16
2022-08-20T11:00:00.994Z,57.58
2022-08-20T11:02:32.724Z,59.14
2022-08-20T11:05:05.508Z,62.78
2022-08-20T11:07:55.375Z,64.10
2022-08-20T11:10:30.397Z,62.09
2022-08-20T11:13:02.524Z,61.49
2022-08-20T11:15:36.510Z,60.28
2022-08-20T11:18:09.077Z,57.39
2022-08-20T11:20:40.695Z,58.30
2022-08-20T11:23:12.305Z,59.81
2022-08-20T11:25:44.054Z,63.95
2022-08-20T11:28:16.232Z,64.30
2022-08-20T11:31:04.486Z,62.22
2022-08-20T11:33:35.990Z,60.87
2022-08-20T11:36:11.229Z,60.13
2022-08-20T11:38:43.100Z,57.85
2022-08-20T11:41:14.842Z,57.37
2022-08-20T11:44:04.686Z,60.40
2022-08-20T11:46:38.008Z,63.96
2022-08-20T11:49:09.563Z,63.81
2022-08-20T11:51:50.048Z,61.76
2022-08-20T11:54:21.995Z,57.46
2022-08-20T11:56:53.640Z,58.61
2022-08-20T11:59:25.376Z,58.82
2022-08-20T12:02:02.716Z,62.74
2022-08-20T12:04:35.437Z,63.49
2022-08-20T12:07:15.290Z,62.08
2022-08-20T12:09:51.394Z,60.48
2022-08-20T12:12:24.903Z,57.33
2022-08-20T12:14:56.876Z,57.54
2022-08-20T12:17:32.680Z,58.14
2022-08-20T12:20:07.233Z,60.50
2022-08-20T12:22:41.236Z,66.00
2022-08-20T12:25:14.212Z,64.55
2022-08-20T12:27:51.497Z,62.14
2022-08-20T12:30:26.827Z,61.18
2022-08-20T12:32:58.979Z,58.07
2022-08-20T12:35:32.067Z,56.80
2022-08-20T12:38:06.751Z,57.88
2022-08-20T12:40:38.376Z,62.45
2022-08-20T12:43:10.103Z,62.48
2022-08-20T12:45:42.028Z,60.87
2022-08-20T12:48:14.955Z,56.75
2022-08-20T12:50:47.415Z,56.85
2022-08-20T12:53:19.379Z,58.40
2022-08-20T12:55:50.989Z,62.83
2022-08-20T12:58:22.659Z,63.69
2022-08-20T13:01:07.625Z,61.55
2022-08-20T13:03:43.141Z,58.43
2022-08-20T13:06:19.716Z,58.91
2022-08-20T13:08:54.411Z,59.98
2022-08-20T13:11:25.985Z,64.30
2022-08-20T13:13:57.895Z,64.24
2022-08-20T13:16:29.571Z,62.97
2022-08-20T13:19:01.271Z,61.89
2022-08-20T13:21:33.002Z,60.68
2022-08-20T13:24:05.558Z,57.63
2022-08-20T13:26:37.424Z,57.43
2022-08-20T13:29:09.963Z,59.51
2022-08-20T13:31:41.567Z,64.22
2022-08-20T13:34:13.221Z,65.30
2022-08-20T13:36:44.789Z,63.37
2022-08-20T13:39:16.733Z,62.32
2022-08-20T13:41:49.642Z,61.29
2022-08-20T13:44:21.222Z,60.35
2022-08-20T13:47:15.926Z,60.47
2022-08-20T13:49:48.076Z,58.72
2022-08-20T13:52:22.996Z,59.38
2022-08-20T13:54:56.164Z,61.22
2022-08-20T13:57:30.458Z,65.36
2022-08-20T14:00:01.937Z,64.95
2022-08-20T14:02:35.976Z,63.12
2022-08-20T14:05:08.621Z,61.87
2022-08-20T14:07:40.409Z,61.07
2022-08-20T14:10:15.633Z,60.48
2022-08-20T14:12:48.249Z,58.79
2022-08-20T14:15:20.697Z,59.77
2022-08-20T14:17:57.312Z,64.01
2022-08-20T14:20:35.608Z,64.16
2022-08-20T14:23:10.479Z,63.00
2022-08-20T14:25:42.574Z,62.13
2022-08-20T14:28:18.273Z,61.56
2022-08-20T14:30:52.630Z,60.43
2022-08-20T14:33:26.309Z,60.09
2022-08-20T14:35:58.058Z,58.78
2022-08-20T14:38:29.617Z,59.02
2022-08-20T14:41:01.151Z,63.50
2022-08-20T14:43:32.761Z,63.88
2022-08-20T14:46:04.479Z,62.51
2022-08-20T14:48:36.242Z,60.90
2022-08-20T14:51:10.093Z,60.53
2022-08-20T14:53:41.690Z,60.07
2022-08-20T14:56:13.296Z,59.66
2022-08-20T14:58:44.840Z,57.57
2022-08-20T15:01:16.508Z,58.84
2022-08-20T15:03:47.999Z,63.15
2022-08-20T15:06:22.700Z,64.06
2022-08-20T15:08:54.350Z,62.20
2022-08-20T15:11:29.440Z,61.07
2022-08-20T15:14:04.062Z,60.35
2022-08-20T15:16:36.376Z,58.41
2022-08-20T15:19:08.348Z,59.08
2022-08-20T15:21:45.091Z,60.44
2022-08-20T15:24:19.747Z,65.13
2022-08-20T15:26:51.446Z,65.43
2022-08-20T15:29:23.637Z,63.36
2022-08-20T15:31:55.467Z,61.99
2022-08-20T15:34:27.129Z,60.66
2022-08-20T15:37:00.330Z,57.99
2022-08-20T15:39:31.984Z,58.47
2022-08-20T15:42:03.900Z,60.39
2022-08-20T15:44:35.991Z,65.01
2022-08-20T15:47:22.260Z,65.11
2022-08-20T15:50:01.141Z,63.44
2022-08-20T15:52:39.310Z,61.89
2022-08-20T15:55:16.734Z,60.29
2022-08-20T15:58:00.384Z,59.87
2022-08-20T16:00:45.444Z,57.88
2022-08-20T16:03:33.192Z,59.16
2022-08-20T16:06:13.645Z,64.29
2022-08-20T16:09:00.574Z,63.95
2022-08-20T16:11:48.315Z,61.10
2022-08-20T16:14:23.323Z,61.14
2022-08-20T16:17:01.541Z,60.78
2022-08-20T16:19:47.981Z,60.37
2022-08-20T16:22:20.939Z,59.86
2022-08-20T16:24:52.664Z,58.42
2022-08-20T16:27:29.490Z,59.15
2022-08-20T16:30:09.768Z,63.19
2022-08-20T16:32:45.361Z,63.69
2022-08-20T16:35:34.240Z,62.29
2022-08-20T16:38:21.187Z,61.14
2022-08-20T16:40:58.594Z,60.14
2022-08-20T16:43:35.856Z,58.03
2022-08-20T16:46:16.161Z,58.16
2022-08-20T16:48:54.888Z,63.75
2022-08-20T16:51:35.137Z,64.10
2022-08-20T16:54:11.215Z,62.50
2022-08-20T16:56:45.142Z,61.26
2022-08-20T16:59:27.011Z,60.10
2022-08-20T17:02:10.079Z,58.52
2022-08-20T17:04:58.645Z,59.43
2022-08-20T17:07:46.222Z,63.93
2022-08-20T17:10:22.402Z,63.45
2022-08-20T17:13:00.395Z,61.79
2022-08-20T17:15:35.094Z,60.92
2022-08-20T17:18:23.577Z,60.17
2022-08-20T17:21:00.381Z,57.93
2022-08-20T17:23:49.171Z,58.36
2022-08-20T17:26:30.867Z,63.73
2022-08-20T17:29:04.851Z,63.99
2022-08-20T17:31:38.844Z,62.24
2022-08-20T17:34:18.708Z,61.18
2022-08-20T17:36:57.061Z,60.30
2022-08-20T17:39:31.595Z,58.03
2022-08-20T17:42:09.910Z,58.75
2022-08-20T17:44:46.875Z,63.33
2022-08-20T17:47:24.025Z,64.21
2022-08-20T17:50:02.820Z,62.49
2022-08-20T17:52:46.517Z,61.44
2022-08-20T17:55:18.467Z,60.59
2022-08-20T17:57:58.868Z,60.07
2022-08-20T18:00:31.080Z,58.22
2022-08-20T18:03:09.952Z,59.13
2022-08-20T18:05:43.273Z,63.57
2022-08-20T18:08:31.231Z,63.93
2022-08-20T18:11:11.014Z,62.10
2022-08-20T18:13:59.206Z,60.99
2022-08-20T18:16:42.422Z,60.61
2022-08-20T18:19:23.710Z,60.17
2022-08-20T18:22:11.477Z,58.48
2022-08-20T18:24:53.135Z,59.54
2022-08-20T18:27:29.334Z,64.00
2022-08-20T18:30:02.447Z,63.99
2022-08-20T18:32:39.209Z,62.22
2022-08-20T18:35:18.715Z,61.07
2022-08-20T18:37:50.703Z,60.26
2022-08-20T18:40:30.326Z,58.59
2022-08-20T18:43:14.891Z,59.02
2022-08-20T18:45:46.864Z,63.67
2022-08-20T18:48:25.651Z,63.91
2022-08-20T18:50:59.459Z,62.14
2022-08-20T18:53:34.581Z,60.94
2022-08-20T18:56:08.929Z,60.07
2022-08-20T18:58:55.582Z,58.21
2022-08-20T19:01:28.890Z,58.73
2022-08-20T19:04:00.752Z,62.88
2022-08-20T19:06:42.270Z,63.68
2022-08-20T19:09:19.399Z,62.45
2022-08-20T19:12:02.283Z,61.12
2022-08-20T19:14:49.756Z,60.55
2022-08-20T19:17:29.993Z,60.34
2022-08-20T19:20:08.948Z,59.28
2022-08-20T19:22:42.305Z,59.19
2022-08-20T19:25:25.907Z,63.70
2022-08-20T19:27:59.677Z,64.21
2022-08-20T19:30:39.600Z,62.75
2022-08-20T19:33:14.065Z,61.64
2022-08-20T19:35:46.040Z,61.03
2022-08-20T19:38:19.190Z,60.67
2022-08-20T19:41:10.957Z,60.48
2022-08-20T19:43:47.017Z,60.05
2022-08-20T19:46:24.604Z,58.44
2022-08-20T19:49:18.011Z,59.40
2022-08-20T19:52:07.538Z,63.96
2022-08-20T19:54:49.540Z,63.61
2022-08-20T19:57:23.110Z,61.93
2022-08-20T19:59:58.172Z,60.87
2022-08-20T20:02:34.031Z,59.92
2022-08-20T20:05:10.555Z,58.12
2022-08-20T20:07:46.228Z,59.25
2022-08-20T20:10:32.491Z,63.37
2022-08-20T20:13:11.218Z,63.75
2022-08-20T20:15:45.415Z,61.96
2022-08-20T20:18:17.261Z,61.13
2022-08-20T20:20:57.813Z,60.08
2022-08-20T20:23:38.744Z,58.21
2022-08-20T20:26:20.961Z,59.26
2022-08-20T20:28:55.919Z,62.75
2022-08-20T20:31:33.810Z,64.71
2022-08-20T20:34:11.383Z,63.29
2022-08-20T20:36:46.282Z,62.11
2022-08-20T20:39:37.548Z,61.15
2022-08-20T20:42:14.559Z,60.59
2022-08-20T20:44:47.342Z,60.06
2022-08-20T20:47:25.303Z,59.85
2022-08-20T20:49:59.801Z,58.21
2022-08-20T20:52:33.867Z,59.79
2022-08-20T20:55:13.252Z,64.15
2022-08-20T20:57:45.075Z,64.89
2022-08-20T21:00:19.567Z,63.66
2022-08-20T21:02:54.276Z,62.38
2022-08-20T21:05:28.733Z,61.47
2022-08-20T21:08:02.609Z,60.82
2022-08-20T21:10:37.596Z,60.23
2022-08-20T21:13:10.947Z,58.30
2022-08-20T21:15:42.995Z,58.53
2022-08-20T21:18:14.840Z,63.40
2022-08-20T21:20:48.380Z,64.49
2022-08-20T21:23:21.523Z,62.99
2022-08-20T21:26:12.972Z,61.90
2022-08-20T21:28:44.914Z,61.22
2022-08-20T21:31:17.167Z,60.32
2022-08-20T21:33:49.025Z,59.85
2022-08-20T21:36:20.852Z,58.23
2022-08-20T21:38:53.048Z,59.20
2022-08-20T21:41:29.578Z,63.02
2022-08-20T21:44:15.070Z,63.45
2022-08-20T21:46:47.333Z,62.02
2022-08-20T21:49:20.476Z,61.08
2022-08-20T21:51:52.668Z,60.17
2022-08-20T21:54:25.396Z,58.31
2022-08-20T21:57:02.673Z,59.29
2022-08-20T21:59:36.906Z,63.43
2022-08-20T22:02:09.456Z,63.75
2022-08-20T22:04:41.238Z,62.18
2022-08-20T22:07:13.234Z,61.01
2022-08-20T22:09:45.171Z,60.45
2022-08-20T22:12:18.795Z,60.01
2022-08-20T22:14:50.901Z,58.36
2022-08-20T22:17:22.980Z,59.50
2022-08-20T22:19:55.111Z,63.45
2022-08-20T22:22:26.694Z,64.24
2022-08-20T22:24:59.329Z,63.05
2022-08-20T22:27:30.913Z,61.95
2022-08-20T22:30:03.062Z,61.16
2022-08-20T22:32:51.977Z,60.53
2022-08-20T22:35:24.312Z,60.17
2022-08-20T22:37:55.933Z,59.96
2022-08-20T22:40:30.195Z,60.08
2022-08-20T22:43:02.265Z,60.04
2022-08-20T22:45:35.290Z,59.81
2022-08-20T22:48:09.674Z,58.17
2022-08-20T22:50:41.198Z,59.19
2022-08-20T22:53:13.803Z,63.33
2022-08-20T22:55:45.637Z,63.74
2022-08-20T22:58:18.408Z,62.03
2022-08-20T23:00:53.822Z,60.84
2022-08-20T23:03:39.904Z,60.10
2022-08-20T23:06:13.637Z,58.21
2022-08-20T23:08:45.705Z,59.88
2022-08-20T23:11:20.108Z,64.14
2022-08-20T23:13:53.150Z,65.33
2022-08-20T23:16:25.011Z,63.82
2022-08-20T23:19:02.661Z,63.05
2022-08-20T23:21:34.233Z,62.11
2022-08-20T23:24:06.406Z,61.64
2022-08-20T23:26:52.531Z,61.33
2022-08-20T23:29:27.017Z,61.01
2022-08-20T23:31:59.263Z,60.80
2022-08-20T23:34:30.900Z,60.56
2022-08-20T23:37:03.857Z,60.46
2022-08-20T23:39:35.975Z,60.26
2022-08-20T23:42:08.716Z,59.89
2022-08-20T23:44:40.231Z,58.17
2022-08-20T23:47:15.981Z,58.58
2022-08-20T23:49:47.657Z,60.81
2022-08-20T23:52:19.267Z,65.34
2022-08-20T23:54:50.872Z,65.23
2022-08-20T23:57:22.555Z,63.18
2022-08-20T23:59:54.591Z,61.90
